createdAt,value
2023-01-17T00:01:24.376Z,1.85
2023-01-17T00:04:48.891Z,2.30
2023-01-17T00:08:14.275Z,1.80
2023-01-17T00:11:23.333Z,2.35
2023-01-17T00:14:31.405Z,2.95
2023-01-17T00:17:39.541Z,2.53
2023-01-17T00:21:04.991Z,1.77
2023-01-17T00:24:30.094Z,2.17
2023-01-17T00:27:38.297Z,3.25
2023-01-17T00:30:45.431Z,2.30
2023-01-17T00:33:52.265Z,2.10
2023-01-17T00:36:59.285Z,2.33
2023-01-17T00:40:07.270Z,2.15
2023-01-17T00:43:36.373Z,1.80
2023-01-17T00:47:01.424Z,2.20
2023-01-17T00:50:27.620Z,2.10
2023-01-17T00:53:52.899Z,2.30
2023-01-17T00:57:18.390Z,2.40
2023-01-17T01:00:45.034Z,2.17
2023-01-17T01:04:10.449Z,1.80
2023-01-17T01:07:35.623Z,2.10
2023-01-17T01:11:00.990Z,2.08
2023-01-17T01:14:26.768Z,2.20
2023-01-17T01:17:53.527Z,2.13
2023-01-17T01:21:21.361Z,2.13
2023-01-17T01:24:46.357Z,2.47
2023-01-17T01:28:11.753Z,2.17
2023-01-17T01:31:37.168Z,1.90
2023-01-17T01:34:46.479Z,2.25
2023-01-17T01:37:54.605Z,2.20
2023-01-17T01:41:02.693Z,2.13
2023-01-17T01:44:44.342Z,1.90
2023-01-17T01:47:53.476Z,2.20
2023-01-17T01:51:03.962Z,2.50
2023-01-17T01:54:12.747Z,2.20
2023-01-17T01:57:22.674Z,2.17
2023-01-17T02:00:31.825Z,2.20
2023-01-17T02:03:40.621Z,1.80
2023-01-17T02:06:50.906Z,2.42
2023-01-17T02:09:59.354Z,2.10
2023-01-17T02:13:07.730Z,2.60
2023-01-17T02:16:27.427Z,2.22
2023-01-17T02:20:00.943Z,2.22
2023-01-17T02:23:29.933Z,2.20
2023-01-17T02:26:58.940Z,2.00
2023-01-17T02:30:28.548Z,2.38
2023-01-17T02:33:39.563Z,2.72
2023-01-17T02:37:00.485Z,2.30
2023-01-17T02:40:11.464Z,2.10
2023-01-17T02:43:19.947Z,2.00
2023-01-17T02:46:29.118Z,2.15
2023-01-17T02:49:37.008Z,2.33
2023-01-17T02:52:54.562Z,2.25
2023-01-17T02:56:05.727Z,2.72
2023-01-17T02:59:19.680Z,3.33
2023-01-17T03:02:31.621Z,2.60
2023-01-17T03:05:41.416Z,2.95
2023-01-17T03:08:50.525Z,2.65
2023-01-17T03:11:58.703Z,2.28
2023-01-17T03:15:11.915Z,2.70
2023-01-17T03:18:21.415Z,2.50
2023-01-17T03:21:29.499Z,2.42
2023-01-17T03:24:37.459Z,2.63
2023-01-17T03:27:45.669Z,2.70
2023-01-17T03:30:53.814Z,2.83
2023-01-17T03:34:03.073Z,2.55
2023-01-17T03:37:11.070Z,2.65
2023-01-17T03:40:19.502Z,2.60
2023-01-17T03:43:27.652Z,2.80
2023-01-17T03:46:36.425Z,2.65
2023-01-17T03:49:45.847Z,3.17
2023-01-17T03:52:53.662Z,2.72
2023-01-17T03:56:01.811Z,2.88
2023-01-17T03:59:12.249Z,2.80
2023-01-17T04:02:21.004Z,2.90
2023-01-17T04:05:30.275Z,2.83
2023-01-17T04:08:38.355Z,3.55
2023-01-17T04:11:50.693Z,2.80
2023-01-17T04:14:58.761Z,2.95
2023-01-17T04:18:06.994Z,2.80
2023-01-17T04:21:16.467Z,2.70
2023-01-17T04:24:24.616Z,2.92
2023-01-17T04:27:32.793Z,2.78
2023-01-17T04:30:40.734Z,3.05
2023-01-17T04:33:48.643Z,3.35
2023-01-17T04:36:58.174Z,2.75
2023-01-17T04:40:07.100Z,2.20
2023-01-17T04:43:15.292Z,2.72
2023-01-17T04:46:23.547Z,3.00
2023-01-17T04:49:31.552Z,2.75
2023-01-17T04:52:40.972Z,2.53
2023-01-17T04:55:48.824Z,3.00
2023-01-17T04:58:58.072Z,2.67
2023-01-17T05:02:06.353Z,3.13
2023-01-17T05:05:14.312Z,3.00
2023-01-17T05:08:23.394Z,2.83
2023-01-17T05:11:31.366Z,2.90
2023-01-17T05:14:39.337Z,3.30
2023-01-17T05:17:47.298Z,2.38
2023-01-17T05:20:55.411Z,3.22
2023-01-17T05:24:05.202Z,3.45
2023-01-17T05:27:13.414Z,3.28
2023-01-17T05:30:21.444Z,3.45
2023-01-17T05:33:29.251Z,3.00
2023-01-17T05:36:37.270Z,2.90
2023-01-17T05:39:46.777Z,2.60
2023-01-17T05:42:55.804Z,3.33
2023-01-17T05:46:04.018Z,3.00
2023-01-17T05:49:12.085Z,3.60
2023-01-17T05:52:20.545Z,2.97
2023-01-17T05:55:30.655Z,3.55
2023-01-17T05:58:40.015Z,3.10
2023-01-17T06:01:47.850Z,2.95
2023-01-17T06:04:55.948Z,3.22
2023-01-17T06:08:04.115Z,3.65
2023-01-17T06:11:13.419Z,3.20
2023-01-17T06:14:21.229Z,3.60
2023-01-17T06:17:29.300Z,3.60
2023-01-17T06:20:37.218Z,3.50
2023-01-17T06:23:45.352Z,3.55
2023-01-17T06:26:54.751Z,4.10
2023-01-17T06:30:02.980Z,3.40
2023-01-17T06:33:11.277Z,3.78
2023-01-17T06:36:19.191Z,3.40
2023-01-17T06:39:27.181Z,3.72
2023-01-17T06:42:36.370Z,3.60
2023-01-17T06:45:44.438Z,3.00
2023-01-17T06:48:52.198Z,3.78
2023-01-17T06:52:00.275Z,3.80
2023-01-17T06:55:09.337Z,3.28
2023-01-17T06:58:18.438Z,3.28
2023-01-17T07:01:26.345Z,3.60
2023-01-17T07:04:35.814Z,3.90
2023-01-17T07:07:43.639Z,4.15
2023-01-17T07:10:51.630Z,3.42
2023-01-17T07:14:01.002Z,2.95
2023-01-17T07:17:09.111Z,3.30
2023-01-17T07:20:17.669Z,3.63
2023-01-17T07:23:25.943Z,3.63
2023-01-17T07:26:34.570Z,3.92
2023-01-17T07:29:43.833Z,3.75
2023-01-17T07:32:53.238Z,3.90
2023-01-17T07:36:03.884Z,4.40
2023-01-17T07:39:11.697Z,3.50
2023-01-17T07:42:19.675Z,3.58
2023-01-17T07:45:29.004Z,3.90
2023-01-17T07:48:37.035Z,3.80
2023-01-17T07:51:44.956Z,3.40
2023-01-17T07:54:52.908Z,4.18
2023-01-17T07:58:02.863Z,3.20
2023-01-17T08:01:13.377Z,3.55
2023-01-17T08:04:21.478Z,3.20
2023-01-17T08:07:29.559Z,3.80
2023-01-17T08:10:37.792Z,3.25
2023-01-17T08:13:45.869Z,3.25
2023-01-17T08:16:55.203Z,3.85
2023-01-17T08:20:03.777Z,3.17
2023-01-17T08:23:11.799Z,4.40
2023-01-17T08:26:22.371Z,4.10
2023-01-17T08:29:30.573Z,3.35
2023-01-17T08:32:40.809Z,3.90
2023-01-17T08:35:53.243Z,3.80
2023-01-17T08:39:01.316Z,3.93
2023-01-17T08:42:09.030Z,3.90
2023-01-17T08:45:17.291Z,3.75
2023-01-17T08:48:26.758Z,3.45
2023-01-17T08:51:35.360Z,3.33
2023-01-17T08:54:43.465Z,3.40
2023-01-17T08:57:51.256Z,3.67
2023-01-17T09:01:01.385Z,3.53
2023-01-17T09:04:11.167Z,3.35
2023-01-17T09:07:20.527Z,4.28
2023-01-17T09:10:29.020Z,3.25
2023-01-17T09:13:36.991Z,3.25
2023-01-17T09:16:45.007Z,3.47
2023-01-17T09:19:54.426Z,3.30
2023-01-17T09:23:03.605Z,3.50
2023-01-17T09:26:18.546Z,4.13
2023-01-17T09:29:26.454Z,3.53
2023-01-17T09:32:34.378Z,3.83
2023-01-17T09:35:43.910Z,3.28
2023-01-17T09:38:57.004Z,3.47
2023-01-17T09:45:20.089Z,3.22
2023-01-17T09:48:31.945Z,3.15
2023-01-17T09:51:42.168Z,3.15
2023-01-17T09:54:50.337Z,3.28
2023-01-17T09:58:01.137Z,3.38
2023-01-17T10:01:13.054Z,2.97
2023-01-17T10:04:30.521Z,3.37
2023-01-17T10:07:42.875Z,3.08
2023-01-17T10:10:57.765Z,3.00
2023-01-17T10:14:15.519Z,3.08
2023-01-17T10:17:28.750Z,2.92
2023-01-17T10:20:45.939Z,3.45
2023-01-17T10:24:16.414Z,2.70
2023-01-17T10:27:26.102Z,2.85
2023-01-17T10:30:36.009Z,2.50
2023-01-17T10:33:46.383Z,2.60
2023-01-17T10:36:55.155Z,2.80
2023-01-17T10:40:14.030Z,2.70
2023-01-17T10:43:24.075Z,2.58
2023-01-17T10:46:34.154Z,2.78
2023-01-17T10:49:45.222Z,2.65
2023-01-17T10:52:55.553Z,2.17
2023-01-17T10:56:04.774Z,2.25
2023-01-17T10:59:22.848Z,2.28
2023-01-17T11:02:33.654Z,2.35
2023-01-17T11:05:42.775Z,2.20
2023-01-17T11:08:52.268Z,2.55
2023-01-17T11:12:01.419Z,2.70
2023-01-17T11:15:19.735Z,2.38
2023-01-17T11:18:29.354Z,2.22
2023-01-17T11:21:38.503Z,2.20
2023-01-17T11:24:49.678Z,2.00
2023-01-17T11:28:03.812Z,2.20
2023-01-17T11:31:25.667Z,2.30
2023-01-17T11:34:33.375Z,2.40
2023-01-17T11:37:42.614Z,2.42
2023-01-17T11:40:50.824Z,2.15
2023-01-17T11:44:00.080Z,2.60
2023-01-17T11:47:09.687Z,2.40
2023-01-17T11:50:26.143Z,2.10
2023-01-17T11:53:35.120Z,2.10
2023-01-17T11:56:46.033Z,2.30
2023-01-17T11:59:57.027Z,2.08
2023-01-17T12:03:18.139Z,1.90
2023-01-17T12:06:29.743Z,1.92
2023-01-17T12:09:40.960Z,2.15
2023-01-17T12:13:09.980Z,1.85
2023-01-17T12:16:30.632Z,1.80
2023-01-17T12:19:48.952Z,1.77
2023-01-17T12:23:13.714Z,1.80
2023-01-17T12:26:27.664Z,2.00
2023-01-17T12:29:44.709Z,1.70
2023-01-17T12:33:09.595Z,2.10
2023-01-17T12:36:24.891Z,1.80
2023-01-17T12:39:35.954Z,1.70
2023-01-17T12:42:45.215Z,1.63
2023-01-17T12:45:54.653Z,1.38
2023-01-17T12:49:20.348Z,1.95
2023-01-17T12:52:36.449Z,1.63
2023-01-17T12:55:49.847Z,1.70
2023-01-17T12:59:04.978Z,2.10
2023-01-17T13:02:16.650Z,1.20
2023-01-17T13:05:28.261Z,1.60
2023-01-17T13:08:41.262Z,1.40
2023-01-17T13:11:50.911Z,1.15
2023-01-17T13:14:58.932Z,1.17
2023-01-17T13:18:09.630Z,1.15
2023-01-17T13:21:34.048Z,1.13
2023-01-17T13:24:45.377Z,1.70
2023-01-17T13:28:05.006Z,1.50
2023-01-17T13:31:25.916Z,1.63
2023-01-17T13:34:42.154Z,1.48
2023-01-17T13:38:00.673Z,1.48
2023-01-17T13:41:15.031Z,1.38
2023-01-17T13:44:24.159Z,1.40
2023-01-17T13:47:42.257Z,1.15
2023-01-17T13:50:50.941Z,1.35
2023-01-17T13:54:00.375Z,1.20
2023-01-17T13:57:39.857Z,1.05
2023-01-17T14:00:54.851Z,1.00
2023-01-17T14:04:04.035Z,1.30
2023-01-17T14:07:19.855Z,1.10
2023-01-17T14:10:34.901Z,1.33
2023-01-17T14:13:43.189Z,1.00
2023-01-17T14:16:51.116Z,0.88
2023-01-17T14:20:01.126Z,1.30
2023-01-17T14:23:40.652Z,0.85
2023-01-17T14:26:51.963Z,0.90
2023-01-17T14:30:00.125Z,1.60
2023-01-17T14:33:12.163Z,1.08
2023-01-17T14:36:28.737Z,1.08
2023-01-17T14:39:45.341Z,0.80
2023-01-17T14:42:58.939Z,0.98
2023-01-17T14:46:09.162Z,1.02
2023-01-17T14:49:26.868Z,0.80
2023-01-17T14:52:35.128Z,1.13
2023-01-17T14:55:50.530Z,0.80
2023-01-17T14:59:16.911Z,1.20
2023-01-17T15:02:25.110Z,0.93
2023-01-17T15:05:33.076Z,1.20
2023-01-17T15:08:41.221Z,1.10
2023-01-17T15:11:49.816Z,1.00
2023-01-17T15:14:59.412Z,0.85
2023-01-17T15:18:26.429Z,0.80
2023-01-17T15:21:36.896Z,0.98
2023-01-17T15:24:48.828Z,0.70
2023-01-17T15:28:07.517Z,0.60
2023-01-17T15:31:18.838Z,0.75
2023-01-17T15:34:28.566Z,0.80
2023-01-17T15:37:40.227Z,0.80
2023-01-17T15:40:48.665Z,1.08
2023-01-17T15:43:58.641Z,0.93
2023-01-17T15:47:27.391Z,0.60
2023-01-17T15:50:40.619Z,0.82
2023-01-17T15:53:48.908Z,1.20
2023-01-17T15:57:19.010Z,0.90
2023-01-17T16:00:32.658Z,0.95
2023-01-17T16:03:53.328Z,0.93
2023-01-17T16:07:20.668Z,1.08
2023-01-17T16:10:31.706Z,1.10
2023-01-17T16:13:42.186Z,0.90
2023-01-17T16:16:53.532Z,1.10
2023-01-17T16:20:03.421Z,1.05
2023-01-17T16:23:11.676Z,1.10
2023-01-17T16:26:19.755Z,0.90
2023-01-17T16:29:27.802Z,0.82
2023-01-17T16:32:36.264Z,0.98
2023-01-17T16:35:48.131Z,0.95
2023-01-17T16:38:56.371Z,0.68
2023-01-17T16:42:04.789Z,0.98
2023-01-17T16:45:13.149Z,0.73
2023-01-17T16:48:21.520Z,0.82
2023-01-17T16:51:30.595Z,1.08
2023-01-17T16:54:38.582Z,0.70
2023-01-17T16:57:46.614Z,0.63
2023-01-17T17:00:56.505Z,0.60
2023-01-17T17:04:04.839Z,0.77
2023-01-17T17:07:14.169Z,1.30
2023-01-17T17:10:25.032Z,1.02
2023-01-17T17:13:35.760Z,0.85
2023-01-17T17:16:44.363Z,0.75
2023-01-17T17:19:52.395Z,0.60
2023-01-17T17:23:01.637Z,1.33
2023-01-17T17:26:09.772Z,1.23
2023-01-17T17:29:17.787Z,1.55
2023-01-17T17:32:25.698Z,1.00
2023-01-17T17:35:34.808Z,1.88
2023-01-17T17:38:51.632Z,1.13
2023-01-17T17:41:59.791Z,2.15
2023-01-17T17:45:08.174Z,1.58
2023-01-17T17:48:16.075Z,1.83
2023-01-17T17:51:25.418Z,1.50
2023-01-17T17:54:34.957Z,0.98
2023-01-17T17:57:42.736Z,1.83
2023-01-17T18:00:50.970Z,1.27
2023-01-17T18:04:02.067Z,1.15
2023-01-17T18:07:10.189Z,1.50
2023-01-17T18:10:19.890Z,1.10
2023-01-17T18:13:28.086Z,1.25
2023-01-17T18:16:36.810Z,0.88
2023-01-17T18:19:46.253Z,0.85
2023-01-17T18:22:54.568Z,1.13
2023-01-17T18:26:03.942Z,1.10
2023-01-17T18:29:14.691Z,0.88
2023-01-17T18:32:23.305Z,3.53
2023-01-17T18:35:31.467Z,1.02
2023-01-17T18:38:40.464Z,1.10
2023-01-17T18:41:50.049Z,1.98
2023-01-17T18:44:57.932Z,1.20
2023-01-17T18:48:06.484Z,0.90
2023-01-17T18:51:15.421Z,0.90
2023-01-17T18:54:23.241Z,1.13
2023-01-17T18:57:32.472Z,0.90
2023-01-17T19:00:40.578Z,1.10
2023-01-17T19:03:49.268Z,0.73
2023-01-17T19:06:57.422Z,0.80
2023-01-17T19:10:05.940Z,0.70
2023-01-17T19:13:15.443Z,1.05
2023-01-17T19:16:25.536Z,1.15
2023-01-17T19:19:33.503Z,1.08
2023-01-17T19:22:41.405Z,0.50
2023-01-17T19:25:54.083Z,1.05
2023-01-17T19:29:05.093Z,0.82
2023-01-17T19:32:13.085Z,2.15
2023-01-17T19:35:22.672Z,1.10
2023-01-17T19:38:30.735Z,0.90
2023-01-17T19:41:41.543Z,0.90
2023-01-17T19:44:50.715Z,1.33
2023-01-17T19:47:58.890Z,1.35
2023-01-17T19:51:07.704Z,1.55
2023-01-17T19:54:16.016Z,1.30
2023-01-17T19:57:24.284Z,1.10
2023-01-17T20:00:45.936Z,1.45
2023-01-17T20:03:57.382Z,1.25
2023-01-17T20:07:05.416Z,1.42
2023-01-17T20:10:13.387Z,2.78
2023-01-17T20:13:21.364Z,1.42
2023-01-17T20:16:31.402Z,1.40
2023-01-17T20:19:39.287Z,1.25
2023-01-17T20:22:47.462Z,2.67
2023-01-17T20:25:58.921Z,2.13
2023-01-17T20:29:10.156Z,2.00
2023-01-17T20:32:19.875Z,1.70
2023-01-17T20:35:29.225Z,1.60
2023-01-17T20:38:43.836Z,1.80
2023-01-17T20:41:52.024Z,1.88
2023-01-17T20:44:59.906Z,1.40
2023-01-17T20:48:09.537Z,1.42
2023-01-17T20:51:17.751Z,1.95
2023-01-17T20:54:26.117Z,1.58
2023-01-17T20:57:34.239Z,1.02
2023-01-17T21:00:42.254Z,1.60
2023-01-17T21:03:53.772Z,3.55
2023-01-17T21:07:01.862Z,1.65
2023-01-17T21:10:10.992Z,1.67
2023-01-17T21:13:19.888Z,1.35
2023-01-17T21:16:28.631Z,1.52
2023-01-17T21:19:37.945Z,1.50
2023-01-17T21:22:46.903Z,1.20
2023-01-17T21:25:58.068Z,2.35
2023-01-17T21:29:07.066Z,1.30
2023-01-17T21:32:17.304Z,1.13
2023-01-17T21:35:26.900Z,1.00
2023-01-17T21:38:34.883Z,1.35
2023-01-17T21:41:45.449Z,1.25
2023-01-17T21:44:54.165Z,1.95
2023-01-17T21:48:02.073Z,1.23
2023-01-17T21:51:11.409Z,1.40
2023-01-17T21:54:19.466Z,1.60
2023-01-17T21:57:44.923Z,1.75
2023-01-17T22:01:07.578Z,1.58
2023-01-17T22:04:15.631Z,1.40
2023-01-17T22:07:26.947Z,0.95
2023-01-17T22:10:44.444Z,1.13
2023-01-17T22:13:52.656Z,1.50
2023-01-17T22:17:00.491Z,1.33
2023-01-17T22:20:11.490Z,1.38
2023-01-17T22:23:21.326Z,0.93
2023-01-17T22:26:30.368Z,0.80
2023-01-17T22:29:38.634Z,1.40
2023-01-17T22:32:46.723Z,0.88
2023-01-17T22:35:59.052Z,1.30
2023-01-17T22:39:08.203Z,1.15
2023-01-17T22:42:16.569Z,1.08
2023-01-17T22:45:25.832Z,1.27
2023-01-17T22:48:33.682Z,1.27
2023-01-17T22:51:41.530Z,1.13
2023-01-17T22:54:51.234Z,2.45
2023-01-17T22:57:59.280Z,1.23
2023-01-17T23:01:07.817Z,1.17
2023-01-17T23:04:17.142Z,0.90
2023-01-17T23:07:26.994Z,1.25
2023-01-17T23:10:53.515Z,0.80
2023-01-17T23:14:01.378Z,0.90
2023-01-17T23:17:26.641Z,0.80
2023-01-17T23:20:34.496Z,0.90
2023-01-17T23:23:42.413Z,0.73
2023-01-17T23:27:05.564Z,0.75
2023-01-17T23:30:14.493Z,1.00
2023-01-17T23:33:22.506Z,1.02
2023-01-17T23:36:30.595Z,0.75
2023-01-17T23:39:38.685Z,1.95
2023-01-17T23:43:05.622Z,1.42
2023-01-17T23:46:13.509Z,1.00
2023-01-17T23:49:21.686Z,1.02
2023-01-17T23:52:29.639Z,0.98
2023-01-17T23:55:38.531Z,1.15
2023-01-17T23:58:47.665Z,1.17
